Watson, Illinois
Current Conditions -  °F | °C
As of 11:15 AM on Sunday 21 Dec 2014 (Local Time) from K1H2 Reporting Station
Broken Clouds Broken Clouds  
Wind Chill: 32°   Ceiling: 3300
Heat Index: 39°   Visibility: 10mi
Dew Point: 28°   Wind: 10mph
Humidity: 64%   Direction: 110°ESE
Pressure: 30.23"   Gusts: NA
Location:  39.03°N, 88.57°W
Report Text: K1H2 211715Z AUTO 11009KT 10SM BKN033 04/M02 A3023 RMK AO2 T00381025
Loading
Personal Weather Stations






























Interactive Weather Map New forecast layout! Learn more

10-Day Weather Forecast

Advertisements
Track Severe Weather on mobile